Time;durP1;ratioP1;P1;durP2;ratioP2;P2;SDS_P1;SDS_P2;PMS_P1;PMS_P2;Temp;Humidity;BMP_temperature;BMP_pressure;BME280_temperature;BME280_humidity;BME280_pressure;Samples;Min_cycle;Max_cycle;Signal;HPM_P1;HPM_P2
2022/05/23 00:00:51;;;;;;;12.43;7.13;;;;;;;17.44;61.32;100646.66;5029752;28;20056;-87
2022/05/23 00:03:20;;;;;;;11.95;6.63;;;;;;;17.45;61.12;100642.16;5029689;28;20071;-86
2022/05/23 00:05:45;;;;;;;11.63;6.75;;;;;;;17.43;61.12;100644.16;5026569;28;20250;-87
2022/05/23 00:08:11;;;;;;;8.27;5.88;;;;;;;17.43;61.60;100647.66;5045235;28;20029;-86
2022/05/23 00:10:36;;;;;;;13.63;7.05;;;;;;;17.40;61.41;100647.97;5051568;28;20025;-85
2022/05/23 00:13:02;;;;;;;10.15;6.50;;;;;;;17.40;61.49;100649.81;5052099;28;20020;-87
2022/05/23 00:15:28;;;;;;;13.90;7.20;;;;;;;17.33;61.53;100646.97;5034720;28;20419;-87
2022/05/23 00:17:54;;;;;;;13.35;7.28;;;;;;;17.30;61.78;100644.63;5033546;28;20028;-87
2022/05/23 00:20:23;;;;;;;13.30;7.10;;;;;;;17.28;61.72;100643.13;5052537;28;20473;-87
2022/05/23 00:22:48;;;;;;;13.13;7.20;;;;;;;17.27;61.97;100631.66;5034641;28;20020;-87
2022/05/23 00:25:14;;;;;;;10.82;6.50;;;;;;;17.21;62.07;100624.31;5032855;28;20052;-87
2022/05/23 00:27:44;;;;;;;12.10;6.90;;;;;;;17.17;62.26;100622.97;5052412;28;20418;-85
2022/05/23 00:30:13;;;;;;;13.70;6.95;;;;;;;17.15;62.37;100614.31;5052701;28;20033;-87
2022/05/23 00:35:24;;;;;;;9.98;6.13;;;;;;;17.17;63.42;100630.94;5051942;28;20315;-87
2022/05/23 00:37:55;;;;;;;10.40;7.07;;;;;;;17.17;63.44;100629.13;5052136;28;20028;-87
2022/05/23 00:40:30;;;;;;;12.20;7.38;;;;;;;17.18;63.54;100629.97;5052372;28;20029;-84
2022/05/23 00:43:13;;;;;;;13.13;7.43;;;;;;;17.10;64.40;100628.09;5034129;28;20341;-84
2022/05/23 00:45:38;;;;;;;;;;;;;;;17.22;61.98;100618.03;5051820;28;20028;-84
2022/05/23 00:48:04;;;;;;;14.50;7.72;;;;;;;17.09;63.94;100614.97;5062098;28;19913;-84
2022/05/23 00:50:32;;;;;;;15.35;8.10;;;;;;;16.99;64.17;100598.34;5042791;28;20025;-87
2022/05/23 00:52:59;;;;;;;14.05;7.93;;;;;;;16.91;64.49;100592.00;5051582;28;20053;-86
2022/05/23 00:55:29;;;;;;;12.35;7.63;;;;;;;16.89;64.89;100593.16;5052605;28;20075;-87
2022/05/23 00:58:03;;;;;;;11.60;7.72;;;;;;;16.83;64.33;100586.66;5034397;28;20031;-87
2022/05/23 01:00:28;;;;;;;11.52;7.68;;;;;;;16.83;64.42;100589.31;5052114;28;20025;-87
2022/05/23 01:02:59;;;;;;;11.93;7.72;;;;;;;16.82;64.48;100587.66;5052154;28;20116;-86
2022/05/23 01:05:26;;;;;;;13.25;7.82;;;;;;;16.75;64.56;100586.59;5051530;28;20021;-84
2022/05/23 01:07:52;;;;;;;12.55;7.28;;;;;;;16.74;64.68;100590.25;5047019;28;20049;-86
2022/05/23 01:10:18;;;;;;;13.10;8.13;;;;;;;16.71;64.56;100601.19;5023393;28;20029;-87
2022/05/23 01:12:43;;;;;;;13.63;8.35;;;;;;;16.69;65.02;100608.50;5031543;28;20029;-84
2022/05/23 01:15:19;;;;;;;12.95;8.00;;;;;;;16.69;64.86;100608.50;5030784;28;20385;-86
2022/05/23 01:17:44;;;;;;;11.65;7.93;;;;;;;16.64;64.99;100609.94;5013931;28;20029;-84
2022/05/23 01:20:10;;;;;;;11.48;7.95;;;;;;;16.65;65.11;100609.78;5030928;28;20497;-86
2022/05/23 01:23:06;;;;;;;12.88;8.10;;;;;;;16.64;64.53;100596.66;5038518;28;20202;-86
2022/05/23 01:25:38;;;;;;;14.70;7.75;;;;;;;16.61;65.19;100600.47;5050983;28;20055;-87
2022/05/23 01:28:07;;;;;;;13.65;7.60;;;;;;;16.62;65.26;100591.50;5047971;28;20476;-86
2022/05/23 01:30:34;;;;;;;11.63;7.75;;;;;;;16.58;65.53;100590.16;5031130;28;20017;-86
2022/05/23 01:33:01;;;;;;;13.30;7.55;;;;;;;16.59;65.42;100589.16;5044304;28;20094;-84
2022/05/23 01:35:26;;;;;;;11.82;7.63;;;;;;;16.52;65.44;100586.31;5032545;28;20154;-86
2022/05/23 01:37:52;;;;;;;11.10;7.70;;;;;;;16.49;65.74;100578.66;5051351;28;20099;-87
2022/05/23 01:40:19;;;;;;;14.82;8.20;;;;;;;16.47;65.90;100569.19;5051974;28;20396;-86
2022/05/23 01:42:45;;;;;;;12.32;7.50;;;;;;;16.44;66.05;100574.81;5032775;28;20021;-84
2022/05/23 01:45:14;;;;;;;14.18;8.68;;;;;;;16.43;65.96;100586.44;5033024;28;20553;-87
2022/05/23 01:47:42;;;;;;;12.98;7.90;;;;;;;16.43;66.02;100584.63;5032844;28;20032;-84
2022/05/23 01:50:08;;;;;;;11.25;7.97;;;;;;;16.42;66.11;100582.13;5028014;28;20032;-84
2022/05/23 01:52:34;;;;;;;15.13;8.13;;;;;;;16.35;66.38;100581.06;5042373;28;20047;-86
2022/05/23 01:54:59;;;;;;;13.25;8.60;;;;;;;16.33;66.41;100580.38;5050755;28;20115;-86
2022/05/23 01:57:26;;;;;;;13.15;7.53;;;;;;;16.28;66.66;100578.19;5031970;28;20049;-87
2022/05/23 02:02:36;;;;;;;12.82;8.10;;;;;;;16.26;66.81;100567.75;5032308;28;20099;-84
2022/05/23 02:05:03;;;;;;;11.75;8.32;;;;;;;16.23;66.96;100560.09;5010533;28;20032;-85
2022/05/23 02:07:29;;;;;;;12.70;8.07;;;;;;;16.26;67.00;100554.47;5011686;28;20033;-84
2022/05/23 02:09:54;;;;;;;11.88;8.00;;;;;;;16.20;67.29;100557.75;5048944;28;20033;-84
2022/05/23 02:12:19;;;;;;;13.77;7.97;;;;;;;16.19;67.17;100561.41;5049720;28;20078;-86
2022/05/23 02:14:47;;;;;;;13.43;8.18;;;;;;;16.13;67.20;100564.69;5031347;28;20021;-87
2022/05/23 02:17:13;;;;;;;13.80;8.43;;;;;;;16.08;67.80;100568.78;5049714;28;20051;-85
2022/05/23 02:19:42;;;;;;;12.82;8.32;;;;;;;16.09;68.10;100563.34;5050376;28;20025;-84
2022/05/23 02:22:07;;;;;;;12.38;8.20;;;;;;;16.11;68.03;100558.69;5049572;28;20017;-87
2022/05/23 02:24:32;;;;;;;11.10;8.23;;;;;;;16.11;67.99;100556.03;5050027;28;20021;-87
2022/05/23 02:26:58;;;;;;;16.63;8.77;;;;;;;16.06;67.97;100557.50;5050516;28;20094;-87
2022/05/23 02:29:24;;;;;;;14.55;8.48;;;;;;;16.05;68.19;100554.00;5034706;28;20048;-84
2022/05/23 02:31:49;;;;;;;14.90;8.82;;;;;;;16.08;68.13;100545.75;5020490;28;20033;-87
2022/05/23 02:34:16;;;;;;;15.35;8.50;;;;;;;16.07;68.27;100554.69;5053064;28;20087;-86
2022/05/23 02:36:43;;;;;;;15.25;9.00;;;;;;;16.08;68.33;100539.59;5033872;28;20294;-86
2022/05/23 02:39:08;;;;;;;12.70;8.88;;;;;;;16.10;68.41;100540.28;5032250;28;20439;-86
2022/05/23 02:41:34;;;;;;;14.35;8.77;;;;;;;16.07;68.40;100536.13;5051463;28;20021;-86
2022/05/23 02:44:00;;;;;;;13.70;9.20;;;;;;;16.05;68.48;100531.94;5031946;28;20040;-87
2022/05/23 02:46:26;;;;;;;13.77;8.85;;;;;;;16.05;68.56;100530.13;5044619;28;20044;-87
2022/05/23 02:48:51;;;;;;;17.15;9.32;;;;;;;16.05;68.95;100524.00;5012645;28;20041;-86
2022/05/23 02:51:16;;;;;;;12.82;8.93;;;;;;;16.03;68.91;100518.84;5045334;28;20029;-86
2022/05/23 02:53:42;;;;;;;15.35;8.77;;;;;;;16.04;68.78;100506.41;5049212;28;20373;-87
2022/05/23 02:56:07;;;;;;;12.98;8.90;;;;;;;15.96;68.92;100501.84;5050432;28;20021;-87
2022/05/23 02:58:33;;;;;;;14.73;9.40;;;;;;;15.88;69.06;100494.69;5049061;28;20029;-87
2022/05/23 03:00:58;;;;;;;13.88;9.25;;;;;;;15.86;69.19;100482.56;5050496;28;20421;-86
2022/05/23 03:03:23;;;;;;;15.15;8.98;;;;;;;15.81;69.38;100474.25;5031015;28;20028;-86
2022/05/23 03:05:53;;;;;;;12.57;8.98;;;;;;;15.83;69.58;100466.97;5035731;28;20135;-86
2022/05/23 03:08:21;;;;;;;12.52;9.18;;;;;;;15.79;69.88;100460.31;5016573;28;20091;-86
2022/05/23 03:10:48;;;;;;;12.90;9.50;;;;;;;15.79;70.09;100449.69;5032241;28;20029;-86
2022/05/23 03:13:13;;;;;;;17.95;9.85;;;;;;;15.77;69.72;100441.88;5050469;28;20028;-87
2022/05/23 03:15:39;;;;;;;12.65;9.50;;;;;;;15.75;69.99;100445.69;5051177;28;20032;-86
2022/05/23 03:18:04;;;;;;;17.75;9.43;;;;;;;15.74;70.08;100442.22;5031827;28;20116;-84
2022/05/23 03:20:29;;;;;;;16.65;9.45;;;;;;;15.75;70.23;100443.88;5030531;28;20075;-84
2022/05/23 03:28:23;;;;;;;16.25;9.73;;;;;;;15.68;70.95;100423.44;5034892;28;20122;-86
2022/05/23 03:30:49;;;;;;;15.52;9.63;;;;;;;15.72;70.88;100416.81;5050858;28;20469;-86
2022/05/23 03:33:15;;;;;;;13.52;9.80;;;;;;;15.71;71.39;100413.34;5063576;28;20032;-86
2022/05/23 03:35:42;;;;;;;13.18;9.63;;;;;;;15.70;71.40;100421.47;5060108;28;20088;-86
2022/05/23 03:38:08;;;;;;;17.88;10.95;;;;;;;15.70;71.41;100408.19;5049081;28;20033;-86
2022/05/23 03:40:35;;;;;;;15.40;10.18;;;;;;;15.69;71.29;100403.88;5050621;28;20465;-86
2022/05/23 03:43:01;;;;;;;18.13;10.05;;;;;;;15.65;71.72;100401.53;5051654;28;20051;-86
2022/05/23 03:45:27;;;;;;;14.30;10.45;;;;;;;15.64;71.71;100399.88;5053315;28;20029;-86
2022/05/23 03:47:54;;;;;;;17.65;10.57;;;;;;;15.63;72.00;100403.53;5036569;28;20428;-87
2022/05/23 03:50:22;;;;;;;16.42;9.85;;;;;;;15.63;71.92;100392.09;5047749;28;20026;-87
2022/05/23 03:52:48;;;;;;;14.52;10.10;;;;;;;15.61;72.12;100389.59;5032961;28;20034;-86
2022/05/23 03:55:14;;;;;;;13.15;9.82;;;;;;;15.58;72.04;100384.56;5036647;28;20031;-86
2022/05/23 03:57:42;;;;;;;15.20;9.85;;;;;;;15.59;71.99;100383.59;5055448;28;20077;-87
2022/05/23 04:00:09;;;;;;;17.52;10.30;;;;;;;15.55;72.49;100384.03;5029146;28;20132;-84
2022/05/23 04:02:34;;;;;;;14.02;10.38;;;;;;;15.57;72.80;100377.56;5025485;28;20044;-87
2022/05/23 04:05:00;;;;;;;12.63;9.45;;;;;;;15.56;72.69;100380.38;5034776;28;20050;-87
2022/05/23 04:07:26;;;;;;;14.52;9.35;;;;;;;15.54;72.93;100382.38;5033502;28;20087;-87
2022/05/23 04:09:52;;;;;;;13.13;9.02;;;;;;;15.54;73.21;100377.06;5048641;28;20078;-86
2022/05/23 04:12:17;;;;;;;15.02;10.02;;;;;;;15.52;73.14;100379.88;5054122;28;20021;-86
2022/05/23 04:14:43;;;;;;;13.18;10.45;;;;;;;15.53;72.84;100362.97;5054317;28;20064;-86
2022/05/23 04:17:09;;;;;;;14.07;9.68;;;;;;;15.59;73.03;100359.72;5052695;28;20021;-84
2022/05/23 04:19:34;;;;;;;16.67;9.05;;;;;;;15.63;72.76;100353.13;5036294;28;20032;-87
2022/05/23 04:22:00;;;;;;;15.38;10.30;;;;;;;15.63;73.05;100355.78;5052576;28;20017;-86
2022/05/23 04:24:25;;;;;;;14.10;9.77;;;;;;;15.69;72.61;100364.09;5051001;28;20021;-88
2022/05/23 04:26:53;;;;;;;14.73;9.70;;;;;;;15.74;72.45;100357.31;5051101;28;20028;-87
2022/05/23 04:29:19;;;;;;;15.35;9.77;;;;;;;15.78;72.60;100358.66;5033186;28;20051;-85
2022/05/23 04:31:44;;;;;;;16.75;10.00;;;;;;;15.82;72.59;100351.22;5051380;28;20381;-87
2022/05/23 04:36:54;;;;;;;15.52;10.23;;;;;;;15.85;72.97;100353.56;5052207;28;20105;-87
2022/05/23 04:39:19;;;;;;;13.10;9.48;;;;;;;15.88;72.90;100355.88;5051009;28;20029;-87
2022/05/23 04:41:45;;;;;;;13.35;9.73;;;;;;;15.93;72.59;100350.91;5033943;28;20044;-85
2022/05/23 04:44:11;;;;;;;16.88;9.82;;;;;;;15.97;72.41;100342.47;5051471;28;20036;-87
2022/05/23 04:49:39;;;;;;;13.77;9.57;;;;;;;15.98;72.41;100343.31;5052780;28;20028;-87
2022/05/23 04:52:06;;;;;;;12.85;9.05;;;;;;;16.01;72.58;100332.41;5036696;28;20799;-87
2022/05/23 04:54:31;;;;;;;14.57;9.55;;;;;;;16.05;72.36;100327.59;5051506;28;20116;-87
2022/05/23 04:56:56;;;;;;;14.10;8.98;;;;;;;16.09;72.29;100326.28;5051452;28;20029;-87
2022/05/23 04:59:22;;;;;;;12.20;8.55;;;;;;;16.13;72.15;100325.78;5018932;28;20474;-87
2022/05/23 05:01:47;;;;;;;14.73;8.93;;;;;;;16.18;72.09;100330.59;5042326;28;20025;-87
2022/05/23 05:04:12;;;;;;;16.38;8.88;;;;;;;16.21;72.73;100322.31;5034330;28;20033;-84
2022/05/23 05:06:38;;;;;;;13.25;9.00;;;;;;;16.25;72.62;100321.81;5034082;28;20024;-84
2022/05/23 05:09:03;;;;;;;12.50;8.75;;;;;;;16.26;72.28;100320.84;5050847;28;20477;-85
2022/05/23 05:11:29;;;;;;;10.73;8.75;;;;;;;16.33;72.39;100309.56;5051421;28;20033;-84
2022/05/23 05:13:54;;;;;;;11.77;8.13;;;;;;;16.38;71.49;100302.75;5031795;28;20063;-84
2022/05/23 05:16:23;;;;;;;12.88;8.27;;;;;;;16.47;71.85;100293.00;5033942;28;20393;-87
2022/05/23 05:18:48;;;;;;;11.32;8.65;;;;;;;16.53;71.79;100287.03;5051580;28;20099;-87
2022/05/23 05:21:13;;;;;;;11.05;7.53;;;;;;;16.58;72.18;100276.72;5050903;28;20036;-88
2022/05/23 05:23:39;;;;;;;9.88;7.25;;;;;;;16.65;71.34;100276.88;5049845;28;20009;-88
2022/05/23 05:26:06;;;;;;;14.50;8.02;;;;;;;16.70;71.76;100277.25;5050508;28;20194;-87
2022/05/23 05:28:32;;;;;;;10.68;7.53;;;;;;;16.73;71.55;100269.78;5050227;28;20473;-88
2022/05/23 05:31:05;;;;;;;12.20;7.90;;;;;;;16.82;70.73;100271.44;5031681;28;20051;-88
2022/05/23 05:33:36;;;;;;;10.85;7.85;;;;;;;16.87;70.58;100261.13;5064234;28;20037;-88
2022/05/23 05:36:07;;;;;;;11.65;8.25;;;;;;;16.92;69.94;100258.81;5038513;28;20039;-86
2022/05/23 05:38:42;;;;;;;12.55;7.82;;;;;;;17.00;70.05;100259.78;5050968;28;20417;-86
2022/05/23 05:41:17;;;;;;;11.50;8.70;;;;;;;17.05;69.18;100250.28;5049652;28;20111;-87
2022/05/23 05:43:51;;;;;;;12.50;8.25;;;;;;;17.08;69.63;100243.81;5048832;28;20091;-86
2022/05/23 05:46:23;;;;;;;12.40;7.85;;;;;;;17.14;68.62;100246.59;5050255;28;20037;-87
2022/05/23 05:48:50;;;;;;;13.65;8.35;;;;;;;17.20;68.41;100239.78;5030295;28;20033;-86
2022/05/23 05:51:20;;;;;;;10.50;8.18;;;;;;;17.24;68.57;100230.47;5045191;28;20477;-86
2022/05/23 05:53:47;;;;;;;12.18;8.30;;;;;;;17.28;68.18;100226.47;5038700;28;20111;-87
2022/05/23 05:56:13;;;;;;;13.15;8.30;;;;;;;17.32;67.66;100230.44;5030815;28;20024;-86
2022/05/23 05:58:39;;;;;;;10.98;8.07;;;;;;;17.36;68.12;100233.59;5049698;28;20033;-87
2022/05/23 06:01:04;;;;;;;9.50;7.85;;;;;;;17.42;67.30;100230.25;5031315;28;20105;-86
2022/05/23 06:03:31;;;;;;;13.27;8.57;;;;;;;17.44;67.59;100229.06;5049853;28;20029;-86
2022/05/23 06:11:25;;;;;;;12.77;8.02;;;;;;;17.67;66.15;100231.00;5048043;28;20060;-86
2022/05/23 06:14:02;;;;;;;13.27;8.15;;;;;;;17.74;66.08;100231.94;5049835;28;20024;-86
2022/05/23 06:16:30;;;;;;;8.95;7.68;;;;;;;17.85;66.15;100223.56;5031582;28;20021;-87
2022/05/23 06:18:56;;;;;;;11.15;7.75;;;;;;;17.91;65.20;100214.88;5053184;28;20485;-87
2022/05/23 06:21:22;;;;;;;9.15;7.47;;;;;;;17.97;65.34;100219.47;5051131;28;20124;-86
2022/05/23 06:23:48;;;;;;;10.10;7.10;;;;;;;18.05;64.37;100208.81;5051113;28;20028;-87
2022/05/23 06:26:21;;;;;;;8.27;6.80;;;;;;;18.14;64.29;100202.41;5050130;28;20047;-87
2022/05/23 06:28:47;;;;;;;11.75;7.35;;;;;;;18.21;63.66;100196.34;5048844;28;20090;-87
2022/05/23 06:31:15;;;;;;;13.65;7.85;;;;;;;18.23;63.99;100191.69;5049413;28;20025;-87
2022/05/23 06:33:40;;;;;;;8.43;7.57;;;;;;;18.32;63.71;100193.25;5050214;28;20029;-84
2022/05/23 06:36:06;;;;;;;9.55;7.32;;;;;;;18.41;63.63;100200.16;5049418;28;20032;-87
2022/05/23 06:38:33;;;;;;;11.73;7.80;;;;;;;18.49;64.93;100200.13;5027915;28;20048;-87
2022/05/23 06:40:58;;;;;;;10.80;8.02;;;;;;;18.57;63.35;100199.22;5030071;28;20497;-87
2022/05/23 06:43:24;;;;;;;10.35;7.65;;;;;;;18.65;62.71;100199.16;5030038;28;20036;-86
2022/05/23 06:45:49;;;;;;;12.27;7.82;;;;;;;18.67;63.09;100202.47;5029174;28;20022;-86
2022/05/23 06:48:15;;;;;;;8.43;7.20;;;;;;;18.73;62.38;100197.25;5030232;28;20095;-88
2022/05/23 06:50:41;;;;;;;13.50;7.55;;;;;;;18.87;62.51;100194.78;5039404;28;20039;-87
2022/05/23 06:53:06;;;;;;;9.48;6.75;;;;;;;19.01;61.99;100196.63;5045066;28;20033;-87
2022/05/23 06:55:32;;;;;;;12.13;7.53;;;;;;;19.19;62.03;100197.06;5049405;28;20028;-86
2022/05/23 06:58:00;;;;;;;8.88;6.68;;;;;;;19.25;61.45;100201.69;5041109;28;20043;-87
2022/05/23 07:00:25;;;;;;;11.68;6.60;;;;;;;19.28;60.66;100203.97;5040556;28;20021;-87
2022/05/23 07:02:50;;;;;;;11.05;6.72;;;;;;;19.31;60.67;100200.94;5027909;28;20021;-87
2022/05/23 07:13:27;;;;;;;10.88;5.88;;;;;;;19.50;59.58;100190.69;5031270;28;20475;-87
2022/05/23 07:15:55;;;;;;;11.63;6.20;;;;;;;19.51;59.38;100195.81;5048770;28;20048;-88
2022/05/23 07:18:22;;;;;;;10.10;6.00;;;;;;;19.52;59.75;100191.31;5027372;28;20049;-88
2022/05/23 07:20:48;;;;;;;11.90;6.28;;;;;;;19.48;60.83;100184.69;5029874;28;20017;-88
2022/05/23 07:23:14;;;;;;;12.43;5.95;;;;;;;19.48;60.85;100190.03;5041260;28;20047;-85
2022/05/23 07:25:42;;;;;;;10.90;6.13;;;;;;;19.47;60.70;100189.22;5040555;28;20037;-87
2022/05/23 07:28:07;;;;;;;11.23;6.45;;;;;;;19.52;60.58;100193.97;5044075;28;20241;-88
2022/05/23 07:30:33;;;;;;;8.13;5.82;;;;;;;19.55;61.52;100193.63;5041264;28;20024;-88
2022/05/23 07:32:58;;;;;;;7.93;5.85;;;;;;;19.59;60.39;100200.25;5049055;28;20041;-87
2022/05/23 07:35:25;;;;;;;13.38;6.20;;;;;;;19.64;60.51;100197.88;5048310;28;20108;-89
2022/05/23 07:37:50;;;;;;;8.00;5.45;;;;;;;19.75;60.43;100191.22;5049357;28;20442;-86
2022/05/23 07:40:16;;;;;;;9.40;6.03;;;;;;;19.88;59.56;100191.34;5050736;28;20025;-89
2022/05/23 07:42:43;;;;;;;8.18;5.25;;;;;;;20.03;59.35;100184.13;5037568;28;20028;-88
2022/05/23 07:45:10;;;;;;;10.43;6.00;;;;;;;20.19;58.74;100177.69;5037847;28;20021;-89
2022/05/23 07:47:35;;;;;;;8.57;5.30;;;;;;;20.44;58.80;100175.47;5051103;28;20044;-89
2022/05/23 07:50:01;;;;;;;10.50;5.78;;;;;;;20.57;57.49;100167.53;5048435;28;20017;-89
2022/05/23 07:52:27;;;;;;;9.77;5.82;;;;;;;20.69;57.34;100167.81;5030943;28;20037;-89
2022/05/23 08:00:31;;;;;;;7.00;4.20;;;;;;;21.41;55.56;100167.41;5048882;28;20451;-84
2022/05/23 08:02:56;;;;;;;7.45;4.55;;;;;;;21.52;53.86;100169.47;5048048;28;20014;-86
2022/05/23 08:05:22;;;;;;;9.25;4.53;;;;;;;21.52;53.13;100159.59;5031468;28;20425;-87
2022/05/23 08:07:48;;;;;;;8.00;4.38;;;;;;;21.50;53.27;100156.28;5046719;28;20040;-87
2022/05/23 08:10:13;;;;;;;10.73;4.50;;;;;;;21.45;53.90;100150.72;5021626;28;20063;-87
2022/05/23 08:12:42;;;;;;;11.27;4.82;;;;;;;21.43;53.14;100139.41;5031261;28;20044;-86
2022/05/23 08:15:07;;;;;;;8.65;4.30;;;;;;;21.26;53.92;100132.75;5034519;28;20103;-86
2022/05/23 08:17:33;;;;;;;10.50;4.22;;;;;;;21.24;53.51;100135.63;5049377;28;20528;-88
2022/05/23 08:19:58;;;;;;;10.07;4.40;;;;;;;21.12;54.31;100142.53;5055957;28;20698;-88
2022/05/23 08:22:25;;;;;;;7.45;4.60;;;;;;;21.08;54.13;100143.13;5051188;28;20060;-87
2022/05/23 08:24:50;;;;;;;8.70;4.60;;;;;;;20.99;54.59;100136.31;5049694;28;20049;-86
2022/05/23 08:27:16;;;;;;;9.30;4.38;;;;;;;20.97;55.25;100128.47;5031016;28;20032;-80
2022/05/23 08:29:41;;;;;;;7.88;4.97;;;;;;;20.98;54.47;100124.78;5032110;28;20777;-79
2022/05/23 08:32:10;;;;;;;8.80;5.13;;;;;;;20.88;55.09;100125.16;5049210;28;20063;-80
2022/05/23 08:34:35;;;;;;;10.60;4.88;;;;;;;20.86;55.35;100115.69;5050810;28;20033;-80
2022/05/23 08:37:00;;;;;;;10.45;4.90;;;;;;;20.92;55.05;100107.69;5051027;28;20043;-86
2022/05/23 08:39:26;;;;;;;8.32;4.75;;;;;;;20.98;54.66;100107.91;5034097;28;20104;-86
2022/05/23 08:41:52;;;;;;;6.53;4.47;;;;;;;21.05;55.65;100088.19;5051477;28;20025;-80
2022/05/23 08:44:36;;;;;;;10.07;4.85;;;;;;;21.08;55.82;100093.13;5051216;28;20049;-80
2022/05/23 08:47:14;;;;;;;10.75;4.90;;;;;;;21.14;55.68;100088.81;5051824;28;20021;-81
2022/05/23 08:49:55;;;;;;;10.23;5.07;;;;;;;21.22;55.08;100084.16;5051365;28;20035;-85
2022/05/23 08:52:26;;;;;;;12.00;5.30;;;;;;;21.31;54.99;100086.66;5050815;28;20434;-85
2022/05/23 08:55:04;;;;;;;7.60;5.05;;;;;;;21.32;54.23;100082.97;5033964;28;20029;-84
2022/05/23 08:57:38;;;;;;;9.20;5.20;;;;;;;21.33;55.30;100069.38;5051469;28;20021;-84
2022/05/23 09:00:18;;;;;;;13.02;5.00;;;;;;;21.42;54.51;100068.16;5033003;28;20039;-83
2022/05/23 09:02:52;;;;;;;7.05;4.88;;;;;;;21.47;53.49;100070.22;5048342;28;20056;-84
2022/05/23 09:05:21;;;;;;;8.43;4.95;;;;;;;21.41;53.08;100061.16;5032325;28;20031;-84
2022/05/23 09:07:57;;;;;;;8.85;4.97;;;;;;;21.41;53.52;100060.34;5032641;28;20035;-84
2022/05/23 09:10:25;;;;;;;11.13;4.78;;;;;;;21.39;54.09;100055.19;5032535;28;20017;-83
2022/05/23 09:12:52;;;;;;;14.57;4.60;;;;;;;21.36;53.37;100046.75;5049883;28;20021;-84
2022/05/23 09:15:17;;;;;;;8.48;4.78;;;;;;;21.38;54.19;100050.84;5050481;28;20024;-84
2022/05/23 09:17:50;;;;;;;8.38;4.82;;;;;;;21.36;54.15;100047.56;5050627;28;20070;-84
2022/05/23 09:20:46;;;;;;;10.55;5.22;;;;;;;21.42;55.06;100053.94;5050804;28;20032;-83
2022/05/23 09:23:50;;;;;;;11.95;5.10;;;;;;;21.42;54.37;100051.28;5033282;28;20075;-84
2022/05/23 09:26:28;;;;;;;11.57;5.03;;;;;;;21.30;55.28;100037.66;5048900;28;20397;-84
2022/05/23 09:28:53;;;;;;;11.20;4.85;;;;;;;21.21;54.85;100033.47;5038717;28;20127;-83
2022/05/23 09:31:24;;;;;;;7.90;4.65;;;;;;;21.24;54.89;100031.28;5050045;28;20477;-83
2022/05/23 09:33:52;;;;;;;9.15;4.70;;;;;;;21.30;54.83;100020.78;5046870;28;20485;-81
2022/05/23 09:36:33;;;;;;;7.97;4.20;;;;;;;21.44;55.45;100022.44;5031887;28;20030;-83
2022/05/23 09:39:05;;;;;;;7.88;4.43;;;;;;;21.63;55.31;100005.59;5050713;28;20767;-83
2022/05/23 09:50:09;;;;;;;7.03;4.55;;;;;;;21.80;53.87;100004.13;5051087;28;20120;-82
2022/05/23 09:52:57;;;;;;;8.57;4.68;;;;;;;21.92;54.28;99995.47;5050254;28;20083;-81
2022/05/23 09:55:40;;;;;;;9.52;4.95;;;;;;;22.18;53.89;99976.69;5031327;28;20090;-79
2022/05/23 09:58:13;;;;;;;12.63;4.90;;;;;;;22.73;53.16;99963.69;5050358;28;20028;-83
2022/05/23 10:00:59;;;;;;;8.63;4.85;;;;;;;23.34;52.14;99958.59;5049671;28;20049;-83
2022/05/23 10:03:28;;;;;;;9.43;4.43;;;;;;;23.85;49.72;99954.06;5050114;28;20452;-83
2022/05/23 10:06:11;;;;;;;9.10;4.95;;;;;;;24.10;49.98;99948.63;5050304;28;20055;-89
2022/05/23 10:08:45;;;;;;;8.52;4.60;;;;;;;24.36;48.93;99945.66;5048514;28;20045;-89
2022/05/23 10:11:31;;;;;;;9.18;5.30;;;;;;;24.42;49.41;99941.28;5049886;28;20027;-89
2022/05/23 10:14:01;;;;;;;7.35;5.00;;;;;;;24.53;47.30;99944.00;5050482;28;20068;-90
2022/05/23 10:16:32;;;;;;;9.50;4.90;;;;;;;24.64;47.57;99940.56;5029852;28;20490;-89
2022/05/23 10:19:10;;;;;;;13.93;5.30;;;;;;;24.74;48.09;99945.38;5030841;28;20033;-88
2022/05/23 10:21:37;;;;;;;10.27;4.30;;;;;;;24.87;46.07;99955.97;5031166;28;20040;-90
2022/05/23 10:24:05;;;;;;;10.80;4.50;;;;;;;24.81;46.36;99956.88;5012713;28;20021;-89
2022/05/23 10:26:35;;;;;;;7.18;4.45;;;;;;;24.85;46.15;99955.38;5030913;28;20041;-89
2022/05/23 10:29:12;;;;;;;8.75;4.50;;;;;;;25.16;46.38;99942.72;5029877;28;20205;-90
2022/05/23 10:31:48;;;;;;;8.30;4.20;;;;;;;25.39;45.98;99947.34;5018114;28;20029;-89
2022/05/23 10:34:33;;;;;;;12.85;5.15;;;;;;;25.51;46.23;99943.59;5051066;28;20033;-90
2022/05/23 10:37:03;;;;;;;10.15;4.65;;;;;;;25.70;44.83;99938.16;5051367;28;20068;-89
2022/05/23 10:42:22;;;;;;;10.70;4.55;;;;;;;25.82;44.10;99925.50;5044808;28;20036;-89
2022/05/23 10:44:56;;;;;;;7.40;4.13;;;;;;;25.89;43.21;99910.81;5012729;28;20029;-88
2022/05/23 10:47:42;;;;;;;4.50;3.55;;;;;;;25.97;41.55;99906.94;5015730;28;20033;-90
2022/05/23 10:50:27;;;;;;;8.57;3.90;;;;;;;25.89;42.58;99893.84;5037238;28;20024;-88
2022/05/23 10:53:21;;;;;;;6.15;4.20;;;;;;;26.02;43.75;99893.59;5050889;28;20033;-89
2022/05/23 10:56:21;;;;;;;9.25;4.45;;;;;;;26.20;42.07;99890.72;5050431;28;20016;-88
2022/05/23 10:59:05;;;;;;;9.07;3.60;;;;;;;26.45;41.66;99876.97;5030971;28;20137;-88
2022/05/23 11:01:36;;;;;;;6.60;3.65;;;;;;;26.62;39.28;99871.59;5030597;28;20025;-89
2022/05/23 11:04:19;;;;;;;6.95;3.70;;;;;;;26.77;40.39;99871.84;5036352;28;20056;-89
2022/05/23 11:07:22;;;;;;;5.32;4.10;;;;;;;26.75;40.94;99857.78;5031805;28;20032;-89
2022/05/23 11:09:52;;;;;;;10.25;4.80;;;;;;;26.72;40.08;99839.38;5050822;28;20054;-89
2022/05/23 11:12:17;;;;;;;7.97;4.70;;;;;;;26.83;40.44;99819.63;5032864;28;20078;-89
2022/05/23 11:15:09;;;;;;;7.93;5.05;;;;;;;26.93;41.49;99818.13;5052203;28;20029;-88
2022/05/23 11:17:48;;;;;;;5.00;4.07;;;;;;;26.80;40.36;99803.06;5052993;28;20028;-89
2022/05/23 11:20:24;;;;;;;8.18;3.78;;;;;;;26.44;39.53;99804.34;5030727;28;20074;-90
2022/05/23 11:22:58;;;;;;;5.78;2.50;;;;;;;25.79;38.36;99802.81;5049744;28;20028;-90
2022/05/23 11:25:29;;;;;;;10.18;2.85;;;;;;;25.55;39.90;99802.00;5014459;28;20053;-90
2022/05/23 11:33:47;;;;;;;3.95;2.40;;;;;;;25.53;40.49;99782.56;5049827;28;20048;-90
2022/05/23 11:36:24;;;;;;;2.88;1.90;;;;;;;25.50;38.65;99772.25;5032588;28;20048;-90
2022/05/23 11:38:51;;;;;;;4.20;2.10;;;;;;;25.69;37.88;99778.34;5050940;28;20031;-90
2022/05/23 11:41:42;;;;;;;4.40;1.88;;;;;;;25.87;39.49;99782.75;5050383;28;20079;-87
2022/05/23 11:44:41;;;;;;;3.92;2.20;;;;;;;25.98;39.00;99772.97;5020385;28;20564;-86
2022/05/23 11:47:26;;;;;;;7.22;2.63;;;;;;;25.89;39.65;99764.44;5049874;28;20097;-87
2022/05/23 11:50:06;;;;;;;5.47;2.20;;;;;;;25.84;39.64;99769.75;5050123;28;20032;-90
2022/05/23 11:52:43;;;;;;;5.70;2.38;;;;;;;25.85;39.86;99750.63;5049586;28;20106;-90
2022/05/23 11:55:11;;;;;;;5.82;2.15;;;;;;;25.85;39.14;99747.13;5011617;28;20118;-88
2022/05/23 11:57:39;;;;;;;4.70;2.40;;;;;;;25.75;38.59;99746.94;5030858;28;20033;-88
2022/05/23 12:00:08;;;;;;;5.55;2.05;;;;;;;25.64;38.92;99750.47;5031936;28;20393;-88
2022/05/23 12:02:38;;;;;;;4.22;1.92;;;;;;;25.58;38.92;99736.03;5034790;28;20021;-88
2022/05/23 12:05:12;;;;;;;4.75;2.40;;;;;;;25.48;38.83;99738.53;5017742;28;20422;-88
2022/05/23 12:07:37;;;;;;;4.70;2.25;;;;;;;25.47;39.76;99744.97;5017368;28;20032;-88
2022/05/23 12:10:21;;;;;;;5.00;2.40;;;;;;;25.43;40.72;99736.56;5037989;28;20025;-87
2022/05/23 12:12:52;;;;;;;5.47;2.25;;;;;;;25.11;41.06;99746.06;5036632;28;20026;-88
2022/05/23 12:15:42;;;;;;;5.63;2.22;;;;;;;25.13;40.50;99742.09;5035381;28;20021;-88
2022/05/23 12:18:11;;;;;;;5.75;2.50;;;;;;;24.95;41.39;99743.03;5036078;28;20055;-88
2022/05/23 12:20:45;;;;;;;5.63;2.22;;;;;;;24.82;41.70;99742.44;5036064;28;20036;-88
2022/05/23 12:23:19;;;;;;;4.38;2.30;;;;;;;24.76;41.16;99738.78;5034545;28;20022;-88
2022/05/23 12:26:09;;;;;;;4.22;2.33;;;;;;;24.81;42.00;99736.22;5033428;28;20095;-85